Terminal Aerodrome Forecast
Issued by NWS Northern Indiana

Home | Current Version | Previous Version | Text Only | Print | Product List | Glossary On
Versions: 1 2 3 4 5 6 7 8 9 10 11 12 13 14 15 16 17 18
000
FTUS43 KIWX 220148 AAA
TAFFWA
TAF AMD
KFWA 220148Z 2202/2224 17006KT P6SM SCT200
     FM220600 17004KT 5SM BR BKN150
     FM220900 VRB03KT 2SM BR SCT008 BKN150
     FM221100 VRB03KT 3/4SM BR OVC005
     FM221600 07006KT 2SM BR VCSH SCT008 BKN015
     FM221800 06011KT 6SM BR BKN025=

USA.gov is the U.S. government's official web portal to all federal, state and local government web resources and services.